ESDF/RNB METAR and TAF weather

Enter ICAO airport designator
Station Type Date Time Source
ESDF METAR 2018/12/12 05:20 UTC NOAA

ESDF 120520Z 01007KT 9999 SCT012 02/01 Q1025


Station Type Date Time Source
ESDF Decoded METAR 2018/12/12 05:20 UTC NOAA

Ronneby, Sweden (ESDF) 56-16N 015-17E 74M
Dec 12, 2018 - 12:20 AM EST / 2018.12.12 0520 UTC
Wind: from the N (010 degrees) at 8 MPH (7 KT):0
Visibility: greater than 7 mile(s):0
Sky conditions: partly cloudy
Temperature: 35 F (2 C)
Windchill: 28 F (-2 C):1
Dew Point: 33 F (1 C)
Relative Humidity: 93%
Pressure (altimeter): 30.27 in. Hg (1025 hPa)
ob: ESDF 120520Z 01007KT 9999 SCT012 02/01 Q1025
cycle: 5

Station Type Date Time Source
ESDF TAF 2018/05/29 12:27 UTC NOAA

TAF TAF ESDF 291425Z 2912/2924 07008KT CAVOK
RMK MIL


Example: see airport list